Classifiche di sempre
Migliori tempi personali validi di atleta tra tutti gli eventi e le stagioni. Ogni atleta compare una sola volta per divisione.
Cerca per nome e apri la pagina in cui è classificato questo record di divisione.
104,221 atleti in classifica
| Pos. | Pos. AG | Atleta | Nazionalità | Categoria età | TempoMiglior tempo | Distacco |
|---|---|---|---|---|---|---|
| 85276 | #2905 | Pravina ThakkarIND · W 50-54 · AG #2905 | IND | W 50-54 | 1:54:08 | +74:32 |
| 85277 | #10990 | Nazia Van Der WerffNED · W 40-44 · AG #10990 | NED | W 40-44 | 1:54:09 | +74:33 |
| 85278 | #11951 | Lieke WoutersNED · W 16-24 · AG #11951 | NED | W 16-24 | 1:54:09 | +74:33 |
| 85279 | #15728 | Jenn LewisUSA · W 35-39 · AG #15728 | USA | W 35-39 | 1:54:09 | +74:33 |
| 85280 | #20768 | Alyssa BeadelUSA · W 25-29 · AG #20768 | USA | W 25-29 | 1:54:09 | +74:33 |
| 85281 | #15729 | Nolly GulwaRSA · W 35-39 · AG #15729 | RSA | W 35-39 | 1:54:09 | +74:33 |
| 85282 | #20484 | Marion RebFRA · W 30-34 · AG #20484 | FRA | W 30-34 | 1:54:09 | +74:33 |
| 85283 | #20769 | Marivicitr HangFRA · W 25-29 · AG #20769 | FRA | W 25-29 | 1:54:09 | +74:33 |
| 85284 | #15730 | Carmen TalónESP · W 35-39 · AG #15730 | ESP | W 35-39 | 1:54:09 | +74:33 |
| 85285 | #15731 | Yana TiutiunnikUKR · W 35-39 · AG #15731 | UKR | W 35-39 | 1:54:09 | +74:33 |
| 85286 | #15732 | Jennifer EstePHI · W 35-39 · AG #15732 | PHI | W 35-39 | 1:54:09 | +74:33 |
| 85287 | #6155 | URSULA KISSANEIRL · W 45-49 · AG #6155 | IRL | W 45-49 | 1:54:09 | +74:33 |
| 85288 | #20771 | Maddie StecchAUS · W 25-29 · AG #20771 | AUS | W 25-29 | 1:54:09 | +74:33 |
| 85289 | #11952 | Ellie RichardsGBR · W 16-24 · AG #11952 | GBR | W 16-24 | 1:54:09 | +74:33 |
| 85290 | #20772 | Georgina MerrettGBR · W 25-29 · AG #20772 | GBR | W 25-29 | 1:54:09 | +74:33 |
| 85291 | #15734 | Kate OnleyUSA · W 35-39 · AG #15734 | USA | W 35-39 | 1:54:09 | +74:33 |
| 85292 | #10991 | Linda Elizabeth NielsenDEN · W 40-44 · AG #10991 | DEN | W 40-44 | 1:54:09 | +74:33 |
| 85293 | #20485 | Wiebke PriesGER · W 30-34 · AG #20485 | GER | W 30-34 | 1:54:09 | +74:33 |
| 85294 | #11954 | Aimée VisserNED · W 16-24 · AG #11954 | NED | W 16-24 | 1:54:09 | +74:33 |
| 85295 | #20770 | Alexa DeBartoloUSA · W 25-29 · AG #20770 | USA | W 25-29 | 1:54:09 | +74:33 |
| 85296 | #15733 | Lorrena TanglaoUSA · W 35-39 · AG #15733 | USA | W 35-39 | 1:54:09 | +74:33 |
| 85297 | #15735 | Rosalind Mei Huan SohSIN · W 35-39 · AG #15735 | SIN | W 35-39 | 1:54:09 | +74:33 |
| 85298 | #6156 | Nicola CrossGBR · W 45-49 · AG #6156 | GBR | W 45-49 | 1:54:09 | +74:33 |
| 85299 | #15736 | Grace NiuHKG · W 35-39 · AG #15736 | HKG | W 35-39 | 1:54:09 | +74:33 |
| 85300 | #20773 | 雪娇 费CHN · W 25-29 · AG #20773 | CHN | W 25-29 | 1:54:09 | +74:33 |
Pagina 3,412 di 4,169